Peaseville, Vermont
Current Conditions -  °F | °C
As of 9:54 PM on Saturday 25 Oct 2014 (Local Time) from KVSF Reporting Station
Haze Haze  
Wind Chill: 46°   Ceiling: 11000
Heat Index: 48°   Visibility: 6mi
Dew Point: 47°   Wind: 5mph
Humidity: 96%   Direction: 280°W
Pressure: 29.51"   Gusts: NA
Location:  43.2811°N, 72.6352°W
Report Text: KVSF 260154Z AUTO 28004KT 6SM BR FEW065 SCT080 BKN110 09/08 A2951 RMK AO2 RAE36 SLP996 P0001 T00890083
Loading
Personal Weather Stations






























Interactive Weather Map
Tropical Storm Tracking
New forecast layout! Learn more

10-Day Weather Forecast

Advertisements
Track Severe Weather on mobile